This is the latest recevied weather packets stored in our database for station/object S57ZT-10. If no packets are shown the sender has not sent any weather packets the latest 10 day(s).
| Time | Temp. | Humidity | Pressure | Rain* | Wind** | Luminosity | Snow |
|---|---|---|---|---|---|---|---|
| 1787395665 | 28.89° C | 37% | 1019.1 hPa | - | - | - | - |
| 1787394804 | 28.89° C | 36% | 1019.2 hPa | - | - | - | - |
| 1787394765 | 28.89° C | 36% | 1019.2 hPa | - | - | - | - |
| 1787393904 | 28.89° C | 37% | 1019.1 hPa | - | - | - | - |
| 1787393865 | 28.89° C | 37% | 1019.1 hPa | - | - | - | - |
| 1787392965 | 28.89° C | 37% | 1019.1 hPa | - | - | - | - |
| 1787392065 | 28.33° C | 38% | 1019 hPa | - | - | - | - |
| 1787391165 | 28.33° C | 38% | 1019 hPa | - | - | - | - |
| 1787390264 | 28.33° C | 38% | 1018.8 hPa | - | - | - | - |
| 1787389364 | 28.89° C | 40% | 1018.8 hPa | - | - | - | - |
| 1787388464 | 29.44° C | 39% | 1018.7 hPa | - | - | - | - |
| 1787387564 | 31.11° C | 36% | 1018.6 hPa | - | - | - | - |
| 1787386664 | 30.56° C | 40% | 1018.8 hPa | - | - | - | - |
| 1787385764 | 28.89° C | 44% | 1018.6 hPa | - | - | - | - |
| 1787384864 | 30° C | 41% | 1018.4 hPa | - | - | - | - |
| 1787383964 | 26.67° C | 49% | 1018.6 hPa | - | - | - | - |
| 1787383097 | 26.11° C | 49% | 1018.5 hPa | - | - | - | - |
| 1787383063 | 26.11° C | 49% | 1018.5 hPa | - | - | - | - |
| 1787382197 | 25.56° C | 53% | 1018.3 hPa | - | - | - | - |
| 1787382163 | 25.56° C | 53% | 1018.3 hPa | - | - | - | - |
| 1787381263 | 24.44° C | 57% | 1018.4 hPa | - | - | - | - |
| 1787380363 | 23.89° C | 60% | 1018.1 hPa | - | - | - | - |
| 1787379462 | 23.33° C | 62% | 1018.1 hPa | - | - | - | - |
| 1787378604 | 23.33° C | 63% | 1018.1 hPa | - | - | - | - |
| 1787378562 | 23.33° C | 63% | 1018.1 hPa | - | - | - | - |
* Rain since midnight (hover to see other rain measurements)
** Current wind speed in m/s (hover to see current wind gust speed)